createdAt,value
2019-03-23T00:00:18.008Z,306.92
2019-03-23T00:01:18.021Z,307.28
2019-03-23T00:02:17.996Z,306.93
2019-03-23T00:03:18.023Z,306.90
2019-03-23T00:04:17.986Z,306.74
2019-03-23T00:05:17.960Z,307.23
2019-03-23T00:06:17.940Z,307.18
2019-03-23T00:07:17.932Z,307.20
2019-03-23T00:08:17.932Z,307.24
2019-03-23T00:09:17.937Z,307.54
2019-03-23T00:10:17.907Z,307.02
2019-03-23T00:11:17.887Z,306.55
2019-03-23T00:12:17.877Z,307.25
2019-03-23T00:13:17.878Z,307.27
2019-03-23T00:14:17.910Z,306.99
2019-03-23T00:15:17.846Z,307.47
2019-03-23T00:16:17.834Z,306.68
2019-03-23T00:17:17.823Z,307.52
2019-03-23T00:18:17.826Z,306.71
2019-03-23T00:19:17.846Z,307.10
2019-03-23T00:20:17.812Z,307.29
2019-03-23T00:21:17.790Z,307.05
2019-03-23T00:22:17.789Z,307.60
2019-03-23T00:23:17.760Z,307.72
2019-03-23T00:24:17.835Z,307.23
2019-03-23T00:25:17.751Z,306.95
2019-03-23T00:26:17.737Z,307.16
2019-03-23T00:27:17.731Z,307.13
2019-03-23T00:28:17.732Z,307.06
2019-03-23T00:29:17.706Z,307.53
2019-03-23T00:30:17.717Z,307.21
2019-03-23T00:31:17.698Z,306.97
2019-03-23T00:32:17.692Z,306.39
2019-03-23T00:33:17.663Z,307.04
2019-03-23T00:34:17.659Z,307.13
2019-03-23T00:35:17.647Z,306.81
2019-03-23T00:36:17.661Z,307.02
2019-03-23T00:37:17.642Z,307.30
2019-03-23T00:38:17.612Z,306.84
2019-03-23T00:39:17.600Z,306.68
2019-03-23T00:40:17.608Z,306.53
2019-03-23T00:41:17.592Z,307.21
2019-03-23T00:42:17.569Z,306.93
2019-03-23T00:43:17.556Z,306.23
2019-03-23T00:44:17.561Z,306.24
2019-03-23T00:45:17.579Z,306.59
2019-03-23T00:46:17.533Z,307.09
2019-03-23T00:47:17.525Z,306.39
2019-03-23T00:48:17.509Z,306.37
2019-03-23T00:49:17.494Z,306.59
2019-03-23T00:50:17.481Z,307.28
2019-03-23T00:51:17.482Z,306.78
2019-03-23T00:52:17.458Z,306.80
2019-03-23T00:53:17.469Z,306.67
2019-03-23T00:54:17.440Z,306.61
2019-03-23T00:55:17.456Z,306.24
2019-03-23T00:56:17.439Z,306.51
2019-03-23T00:57:17.462Z,306.49
2019-03-23T00:58:17.402Z,306.14
2019-03-23T00:59:17.389Z,306.57
2019-03-23T01:00:17.388Z,305.90
2019-03-23T01:01:17.435Z,306.13
2019-03-23T01:02:17.368Z,306.78
2019-03-23T01:03:17.361Z,306.13
2019-03-23T01:04:17.331Z,306.56
2019-03-23T01:05:17.352Z,306.32
2019-03-23T01:06:17.308Z,306.63
2019-03-23T01:07:17.401Z,306.60
2019-03-23T01:08:17.315Z,306.36
2019-03-23T01:09:17.291Z,306.47
2019-03-23T01:10:17.283Z,306.72
2019-03-23T01:11:17.253Z,306.33
2019-03-23T01:12:17.256Z,306.33
2019-03-23T01:13:17.285Z,306.23
2019-03-23T01:14:17.222Z,307.46
2019-03-23T01:15:17.223Z,306.36
2019-03-23T01:16:17.202Z,306.60
2019-03-23T01:17:17.210Z,307.06
2019-03-23T01:18:17.225Z,306.27
2019-03-23T01:19:17.180Z,306.39
2019-03-23T01:20:17.191Z,305.85
2019-03-23T01:21:17.151Z,306.49
2019-03-23T01:22:17.149Z,306.68
2019-03-23T01:23:17.167Z,306.88
2019-03-23T01:24:17.138Z,306.57
2019-03-23T01:25:17.163Z,306.35
2019-03-23T01:26:17.110Z,306.40
2019-03-23T01:27:17.081Z,306.65
2019-03-23T01:28:17.082Z,306.55
2019-03-23T01:29:17.074Z,306.49
2019-03-23T01:30:17.115Z,306.91
2019-03-23T01:31:17.033Z,306.97
2019-03-23T01:32:17.037Z,306.58
2019-03-23T01:33:17.062Z,306.78
2019-03-23T01:34:17.019Z,306.65
2019-03-23T01:35:17.020Z,306.01
2019-03-23T01:36:17.030Z,306.85
2019-03-23T01:37:16.981Z,306.66
2019-03-23T01:38:16.976Z,306.89
2019-03-23T01:39:16.975Z,306.89
2019-03-23T01:40:16.979Z,306.52
2019-03-23T01:41:16.943Z,307.36
2019-03-23T01:42:16.960Z,306.94
2019-03-23T01:43:16.945Z,306.73
2019-03-23T01:44:16.932Z,306.91
2019-03-23T01:45:16.909Z,307.37
2019-03-23T01:46:16.911Z,306.73
2019-03-23T01:47:16.910Z,307.07
2019-03-23T01:48:16.903Z,306.56
2019-03-23T01:49:16.847Z,306.58
2019-03-23T01:50:16.840Z,307.14
2019-03-23T01:51:16.869Z,306.82
2019-03-23T01:52:16.829Z,306.70
2019-03-23T01:53:16.825Z,307.11
2019-03-23T01:54:16.805Z,306.84
2019-03-23T01:55:16.780Z,306.38
2019-03-23T01:56:16.810Z,306.23
2019-03-23T01:57:16.865Z,307.19
2019-03-23T01:58:16.761Z,306.26
2019-03-23T01:59:16.758Z,306.76
2019-03-23T02:00:16.778Z,306.69
2019-03-23T02:01:16.727Z,306.85
2019-03-23T02:02:16.715Z,307.17
2019-03-23T02:03:16.829Z,306.45
2019-03-23T02:04:16.683Z,307.01
2019-03-23T02:05:16.682Z,306.91
2019-03-23T02:06:16.694Z,306.64
2019-03-23T02:07:16.654Z,307.16
2019-03-23T02:08:16.647Z,306.88
2019-03-23T02:09:16.668Z,306.81
2019-03-23T02:10:16.634Z,306.94
2019-03-23T02:11:16.636Z,307.20
2019-03-23T02:12:16.633Z,306.10
2019-03-23T02:13:16.596Z,306.20
2019-03-23T02:14:16.607Z,307.51
2019-03-23T02:15:16.576Z,307.23
2019-03-23T02:16:16.562Z,307.39
2019-03-23T02:17:16.562Z,306.45
2019-03-23T02:18:16.538Z,307.01
2019-03-23T02:19:16.542Z,306.50
2019-03-23T02:20:16.529Z,306.42
2019-03-23T02:21:16.497Z,306.91
2019-03-23T02:22:16.484Z,307.22
2019-03-23T02:23:16.470Z,307.08
2019-03-23T02:24:16.499Z,306.98
2019-03-23T02:25:16.486Z,306.58
2019-03-23T02:26:16.452Z,306.82
2019-03-23T02:27:16.458Z,306.40
2019-03-23T02:28:16.439Z,307.13
2019-03-23T02:29:16.494Z,306.70
2019-03-23T02:30:16.421Z,306.59
2019-03-23T02:31:16.491Z,307.32
2019-03-23T02:32:16.479Z,306.95
2019-03-23T02:33:16.388Z,306.74
2019-03-23T02:34:16.513Z,306.75
2019-03-23T02:35:16.370Z,307.47
2019-03-23T02:36:16.452Z,306.89
2019-03-23T02:37:27.222Z,307.07
2019-03-23T02:38:17.378Z,306.94
2019-03-23T02:39:16.384Z,306.90
2019-03-23T02:40:16.321Z,306.69
2019-03-23T02:41:16.296Z,306.69
2019-03-23T02:42:16.289Z,306.55
2019-03-23T02:43:16.277Z,306.60
2019-03-23T02:44:16.260Z,306.55
2019-03-23T02:45:16.281Z,307.09
2019-03-23T02:46:16.296Z,307.42
2019-03-23T02:47:16.224Z,306.77
2019-03-23T02:48:16.217Z,306.78
2019-03-23T02:49:16.198Z,306.97
2019-03-23T02:50:16.198Z,306.82
2019-03-23T02:51:16.203Z,307.37
2019-03-23T02:52:16.163Z,306.41
2019-03-23T02:53:16.155Z,307.00
2019-03-23T02:54:16.140Z,307.10
2019-03-23T02:55:16.184Z,306.72
2019-03-23T02:56:16.157Z,306.70
2019-03-23T02:57:16.142Z,307.00
2019-03-23T02:58:16.138Z,306.86
2019-03-23T02:59:16.095Z,307.29
2019-03-23T03:00:16.118Z,307.16
2019-03-23T03:01:16.070Z,307.31
2019-03-23T03:02:16.062Z,307.15
2019-03-23T03:03:16.063Z,306.39
2019-03-23T03:04:16.031Z,307.37
2019-03-23T03:05:16.050Z,306.82
2019-03-23T03:06:16.181Z,306.91
2019-03-23T03:07:16.003Z,306.88
2019-03-23T03:08:16.082Z,307.22
2019-03-23T03:09:15.992Z,306.92
2019-03-23T03:10:15.981Z,306.78
2019-03-23T03:11:15.960Z,306.07
2019-03-23T03:12:15.974Z,306.56
2019-03-23T03:13:15.953Z,306.69
2019-03-23T03:14:15.932Z,306.77
2019-03-23T03:15:15.947Z,307.14
2019-03-23T03:16:15.916Z,306.72
2019-03-23T03:17:15.934Z,307.29
2019-03-23T03:18:15.915Z,307.45
2019-03-23T03:19:15.875Z,306.90
2019-03-23T03:20:15.867Z,306.77
2019-03-23T03:21:15.864Z,306.80
2019-03-23T03:22:15.848Z,306.61
2019-03-23T03:23:15.845Z,307.29
2019-03-23T03:24:15.841Z,307.24
2019-03-23T03:25:15.809Z,306.92
2019-03-23T03:26:15.809Z,307.44
2019-03-23T03:27:15.819Z,307.02
2019-03-23T03:28:15.813Z,306.71
2019-03-23T03:29:15.783Z,306.74
2019-03-23T03:30:15.759Z,306.55
2019-03-23T03:31:15.878Z,306.78
2019-03-23T03:32:15.772Z,306.86
2019-03-23T03:33:15.769Z,306.86
2019-03-23T03:34:15.819Z,307.52
2019-03-23T03:35:20.647Z,306.78
2019-03-23T03:36:15.700Z,307.07
2019-03-23T03:37:15.716Z,306.63
2019-03-23T03:38:15.735Z,306.77
2019-03-23T03:39:15.668Z,306.73
2019-03-23T03:40:15.642Z,306.86
2019-03-23T03:41:15.727Z,307.39
2019-03-23T03:42:15.623Z,307.19
2019-03-23T03:43:15.654Z,307.45
2019-03-23T03:44:15.777Z,306.85
2019-03-23T03:45:15.695Z,307.05
2019-03-23T03:46:15.590Z,307.18
2019-03-23T03:47:15.602Z,307.19
2019-03-23T03:48:15.612Z,306.17
2019-03-23T03:49:15.547Z,306.54
2019-03-23T03:50:15.682Z,307.41
2019-03-23T03:51:15.549Z,306.64
2019-03-23T03:52:15.541Z,306.38
2019-03-23T03:53:15.561Z,306.58
2019-03-23T03:54:15.507Z,306.59
2019-03-23T03:55:15.496Z,306.57
2019-03-23T03:56:15.508Z,307.10
2019-03-23T03:57:15.464Z,306.94
2019-03-23T03:58:15.460Z,306.70
2019-03-23T03:59:15.594Z,306.90
2019-03-23T04:00:15.447Z,306.87
2019-03-23T04:01:15.527Z,306.47
2019-03-23T04:02:15.417Z,306.86
2019-03-23T04:03:15.443Z,306.77
2019-03-23T04:04:15.550Z,307.10
2019-03-23T04:05:15.425Z,306.81
2019-03-23T04:06:15.379Z,306.93
2019-03-23T04:07:15.370Z,306.80
2019-03-23T04:08:15.376Z,306.74
2019-03-23T04:09:15.341Z,306.79
2019-03-23T04:10:15.335Z,307.04
2019-03-23T04:11:15.364Z,306.25
2019-03-23T04:12:15.323Z,307.16
2019-03-23T04:13:15.299Z,307.11
2019-03-23T04:14:15.295Z,306.95
2019-03-23T04:15:15.274Z,307.20
2019-03-23T04:16:15.264Z,307.05
2019-03-23T04:17:15.291Z,307.18
2019-03-23T04:18:15.252Z,306.42
2019-03-23T04:19:15.387Z,306.27
2019-03-23T04:20:15.218Z,306.92
2019-03-23T04:21:15.237Z,306.88
2019-03-23T04:22:15.203Z,306.75
2019-03-23T04:23:15.206Z,306.60
2019-03-23T04:24:15.178Z,306.78
2019-03-23T04:25:15.174Z,306.80
2019-03-23T04:26:15.179Z,306.79
2019-03-23T04:27:15.209Z,306.76
2019-03-23T04:28:15.143Z,306.33
2019-03-23T04:29:15.134Z,306.42
2019-03-23T04:30:15.111Z,306.55
2019-03-23T04:31:15.119Z,306.76
2019-03-23T04:32:15.113Z,306.33
2019-03-23T04:33:15.082Z,306.69
2019-03-23T04:34:15.082Z,307.18
2019-03-23T04:35:15.058Z,306.19
2019-03-23T04:36:15.112Z,306.79
2019-03-23T04:37:15.091Z,306.57
2019-03-23T04:38:22.586Z,306.58
2019-03-23T04:39:16.014Z,307.24
2019-03-23T04:40:15.013Z,306.80
2019-03-23T04:41:15.018Z,307.06
2019-03-23T04:42:15.020Z,306.50
2019-03-23T04:43:14.981Z,307.31
2019-03-23T04:44:15.023Z,307.15
2019-03-23T04:45:14.960Z,306.60
2019-03-23T04:46:14.940Z,307.50
2019-03-23T04:47:15.005Z,306.87
2019-03-23T04:48:14.963Z,306.65
2019-03-23T04:49:14.937Z,307.31
2019-03-23T04:50:14.899Z,307.28
2019-03-23T04:51:14.902Z,307.03
2019-03-23T04:52:14.883Z,307.15
2019-03-23T04:53:14.873Z,306.41
2019-03-23T04:54:14.884Z,306.84
2019-03-23T04:55:14.855Z,307.02
2019-03-23T04:56:14.825Z,306.70
2019-03-23T04:57:14.833Z,307.33
2019-03-23T04:58:14.889Z,306.75
2019-03-23T04:59:14.804Z,307.68
2019-03-23T05:00:14.840Z,307.12
2019-03-23T05:01:14.791Z,306.93
2019-03-23T05:02:14.761Z,306.80
2019-03-23T05:03:14.764Z,306.87
2019-03-23T05:04:14.778Z,306.62
2019-03-23T05:05:14.761Z,306.88
2019-03-23T05:06:14.787Z,306.59
2019-03-23T05:07:14.747Z,306.48
2019-03-23T05:08:14.725Z,306.44
2019-03-23T05:09:14.683Z,306.37
2019-03-23T05:10:14.700Z,306.76
2019-03-23T05:11:14.674Z,306.82
2019-03-23T05:12:14.656Z,306.85
2019-03-23T05:13:14.695Z,306.44
2019-03-23T05:14:14.641Z,307.19
2019-03-23T05:15:14.626Z,306.72
2019-03-23T05:16:14.634Z,306.66
2019-03-23T05:17:14.608Z,306.62
2019-03-23T05:18:14.598Z,307.31
2019-03-23T05:19:14.613Z,306.56
2019-03-23T05:20:14.564Z,306.69
2019-03-23T05:21:14.559Z,306.73
2019-03-23T05:22:14.557Z,307.15
2019-03-23T05:23:14.554Z,306.75
2019-03-23T05:24:14.564Z,307.21
2019-03-23T05:25:14.529Z,306.79
2019-03-23T05:26:14.494Z,307.40
2019-03-23T05:27:14.505Z,306.10
2019-03-23T05:28:14.488Z,306.60
2019-03-23T05:29:14.501Z,307.02
2019-03-23T05:30:14.496Z,306.60
2019-03-23T05:31:14.463Z,306.78
2019-03-23T05:32:14.450Z,307.09
2019-03-23T05:33:14.435Z,307.15
2019-03-23T05:34:14.442Z,306.29
2019-03-23T05:35:14.415Z,306.99
2019-03-23T05:36:15.383Z,307.00
2019-03-23T05:37:14.386Z,306.99
2019-03-23T05:38:14.383Z,306.87
2019-03-23T05:39:14.389Z,306.72
2019-03-23T05:40:14.352Z,306.69
2019-03-23T05:41:14.343Z,306.83
2019-03-23T05:42:14.329Z,306.80
2019-03-23T05:43:14.352Z,306.47
2019-03-23T05:44:14.334Z,306.28
2019-03-23T05:45:14.319Z,306.18
2019-03-23T05:46:14.378Z,306.69
2019-03-23T05:47:14.289Z,306.54
2019-03-23T05:48:14.277Z,306.12
2019-03-23T05:49:14.267Z,306.91
2019-03-23T05:50:14.269Z,306.71
2019-03-23T05:51:14.244Z,306.88
2019-03-23T05:52:14.230Z,306.60
2019-03-23T05:53:14.226Z,307.08
2019-03-23T05:54:14.218Z,306.65
2019-03-23T05:55:14.216Z,306.72
2019-03-23T05:56:14.219Z,306.82
2019-03-23T05:57:14.172Z,306.23
2019-03-23T05:58:14.169Z,306.70
2019-03-23T05:59:14.158Z,306.55
2019-03-23T06:00:14.146Z,306.62
2019-03-23T06:01:14.191Z,306.61
2019-03-23T06:02:14.118Z,306.74
2019-03-23T06:03:14.125Z,306.51
2019-03-23T06:04:14.092Z,306.97
2019-03-23T06:05:14.081Z,307.35
2019-03-23T06:06:14.103Z,306.73
2019-03-23T06:07:14.099Z,306.84
2019-03-23T06:08:14.069Z,306.79
2019-03-23T06:09:14.061Z,306.97
2019-03-23T06:10:14.029Z,306.87
2019-03-23T06:11:14.015Z,307.91
2019-03-23T06:12:14.228Z,307.42
2019-03-23T06:13:14.028Z,307.40
2019-03-23T06:14:13.996Z,307.20
2019-03-23T06:15:13.990Z,307.50
2019-03-23T06:16:13.977Z,307.43
2019-03-23T06:17:13.956Z,307.43
2019-03-23T06:18:13.994Z,307.73
2019-03-23T06:19:13.950Z,307.22
2019-03-23T06:20:13.932Z,307.29
2019-03-23T06:21:13.931Z,306.95
2019-03-23T06:22:13.901Z,307.62
2019-03-23T06:23:13.894Z,307.25
2019-03-23T06:24:13.916Z,306.99
2019-03-23T06:25:13.882Z,307.58
2019-03-23T06:26:13.874Z,307.08
2019-03-23T06:27:14.189Z,307.59
2019-03-23T06:28:13.849Z,307.48
2019-03-23T06:29:13.867Z,307.53
2019-03-23T06:30:13.851Z,307.99
2019-03-23T06:31:13.824Z,307.62
2019-03-23T06:32:13.847Z,307.66
2019-03-23T06:33:13.833Z,307.76
2019-03-23T06:34:13.787Z,307.67
2019-03-23T06:35:13.809Z,308.12
2019-03-23T06:36:13.795Z,307.78
2019-03-23T06:37:13.769Z,307.55
2019-03-23T06:38:16.204Z,307.63
2019-03-23T06:39:13.732Z,307.93
2019-03-23T06:40:13.736Z,307.68
2019-03-23T06:41:13.730Z,307.80
2019-03-23T06:42:13.707Z,307.27
2019-03-23T06:43:13.682Z,307.38
2019-03-23T06:44:13.672Z,308.46
2019-03-23T06:45:13.673Z,307.97
2019-03-23T06:46:13.661Z,307.77
2019-03-23T06:47:13.676Z,307.74
2019-03-23T06:48:13.643Z,308.25
2019-03-23T06:49:13.655Z,308.29
2019-03-23T06:50:13.647Z,307.99
2019-03-23T06:51:13.615Z,308.23
2019-03-23T06:52:13.626Z,308.50
2019-03-23T06:53:13.597Z,308.65
2019-03-23T06:54:13.563Z,308.54
2019-03-23T06:55:13.608Z,308.48
2019-03-23T06:56:13.567Z,308.23
2019-03-23T06:57:13.545Z,308.90
2019-03-23T06:58:13.564Z,308.15
2019-03-23T06:59:13.535Z,308.17
2019-03-23T07:00:13.528Z,308.39
2019-03-23T07:01:13.510Z,308.71
2019-03-23T07:02:13.511Z,308.65
2019-03-23T07:03:13.469Z,308.94
2019-03-23T07:04:13.497Z,308.93
2019-03-23T07:05:13.479Z,309.69
2019-03-23T07:06:13.453Z,309.16
2019-03-23T07:07:13.468Z,308.90
2019-03-23T07:08:13.422Z,309.38
2019-03-23T07:09:16.398Z,309.40
2019-03-23T07:10:13.393Z,308.88
2019-03-23T07:11:13.423Z,309.23
2019-03-23T07:12:13.389Z,308.93
2019-03-23T07:13:13.419Z,308.62
2019-03-23T07:14:13.420Z,308.57
2019-03-23T07:15:19.861Z,308.72
2019-03-23T07:16:14.356Z,308.85
2019-03-23T07:17:13.329Z,308.77
2019-03-23T07:18:13.341Z,308.27
2019-03-23T07:19:13.309Z,309.50
2019-03-23T07:20:13.304Z,308.84
2019-03-23T07:21:13.284Z,308.45
2019-03-23T07:22:13.299Z,307.93
2019-03-23T07:23:13.267Z,308.40
2019-03-23T07:24:13.276Z,308.34
2019-03-23T07:25:13.287Z,308.36
2019-03-23T07:26:13.233Z,308.29
2019-03-23T07:27:13.220Z,308.11
2019-03-23T07:28:13.237Z,308.19
2019-03-23T07:29:13.197Z,308.41
2019-03-23T07:30:13.249Z,307.94
2019-03-23T07:31:13.213Z,308.70
2019-03-23T07:32:13.189Z,308.52
2019-03-23T07:33:13.159Z,308.14
2019-03-23T07:34:13.210Z,308.02
2019-03-23T07:35:13.160Z,307.55
2019-03-23T07:36:13.180Z,308.66
2019-03-23T07:37:13.114Z,308.42
2019-03-23T07:38:13.211Z,307.57
2019-03-23T07:39:27.235Z,307.35
2019-03-23T07:40:14.084Z,307.34
2019-03-23T07:41:13.068Z,307.01
2019-03-23T07:42:13.042Z,307.59
2019-03-23T07:43:13.102Z,307.73
2019-03-23T07:44:13.037Z,307.00
2019-03-23T07:45:22.276Z,306.88
2019-03-23T07:46:13.023Z,306.90
2019-03-23T07:47:12.995Z,306.37
2019-03-23T07:48:13.030Z,306.85
2019-03-23T07:49:12.998Z,307.10
2019-03-23T07:50:12.976Z,305.44
2019-03-23T07:51:12.989Z,305.83
2019-03-23T07:52:12.938Z,306.40
2019-03-23T07:53:12.939Z,305.93
2019-03-23T07:54:12.944Z,306.24
2019-03-23T07:55:12.919Z,305.88
2019-03-23T07:56:12.936Z,305.32
2019-03-23T07:57:12.903Z,305.88
2019-03-23T07:58:12.908Z,305.51
2019-03-23T07:59:12.875Z,306.09
2019-03-23T08:00:12.874Z,306.25
2019-03-23T08:01:12.869Z,306.04
2019-03-23T08:02:12.830Z,305.78
2019-03-23T08:03:12.845Z,305.86
2019-03-23T08:04:12.907Z,305.94
2019-03-23T08:05:12.916Z,305.92
2019-03-23T08:06:12.814Z,305.84
2019-03-23T08:07:12.793Z,305.70
2019-03-23T08:08:12.773Z,305.21
2019-03-23T08:09:20.435Z,305.80
2019-03-23T08:10:13.819Z,305.95
2019-03-23T08:11:12.795Z,306.14
2019-03-23T08:12:12.784Z,306.31
2019-03-23T08:13:12.781Z,306.58
2019-03-23T08:14:12.753Z,306.84
2019-03-23T08:15:12.780Z,306.57
2019-03-23T08:16:12.735Z,305.13
2019-03-23T08:17:12.684Z,305.30
2019-03-23T08:18:12.699Z,305.41
2019-03-23T08:19:12.707Z,305.60
2019-03-23T08:20:12.705Z,305.76
2019-03-23T08:21:12.656Z,305.29
2019-03-23T08:22:12.634Z,304.35
2019-03-23T08:23:12.616Z,304.89
2019-03-23T08:24:12.618Z,304.91
2019-03-23T08:25:12.607Z,304.73
2019-03-23T08:26:12.594Z,304.62
2019-03-23T08:27:12.577Z,304.28
2019-03-23T08:28:12.608Z,304.75
2019-03-23T08:29:12.553Z,305.45
2019-03-23T08:30:12.564Z,304.56
2019-03-23T08:31:12.557Z,305.32
2019-03-23T08:32:12.533Z,305.39
2019-03-23T08:33:12.508Z,305.27
2019-03-23T08:34:12.505Z,305.73
2019-03-23T08:35:13.219Z,305.04
2019-03-23T08:36:12.524Z,305.35
2019-03-23T08:37:12.504Z,304.80
2019-03-23T08:38:12.479Z,304.66
2019-03-23T08:39:12.476Z,305.24
2019-03-23T08:40:12.488Z,304.55
2019-03-23T08:41:12.482Z,305.03
2019-03-23T08:42:13.221Z,305.09
2019-03-23T08:43:12.443Z,304.89
2019-03-23T08:44:13.223Z,304.78
2019-03-23T08:45:12.396Z,303.60
2019-03-23T08:46:12.443Z,304.78
2019-03-23T08:47:12.405Z,304.43
2019-03-23T08:48:12.393Z,304.30
2019-03-23T08:49:12.330Z,304.05
2019-03-23T08:50:13.236Z,303.74
2019-03-23T08:51:12.366Z,303.50
2019-03-23T08:52:22.267Z,303.85
2019-03-23T08:53:13.778Z,303.99
2019-03-23T08:54:12.604Z,303.77
2019-03-23T08:55:12.273Z,304.04
2019-03-23T08:56:21.359Z,303.49
2019-03-23T08:57:13.331Z,304.39
2019-03-23T08:58:13.349Z,302.80
2019-03-23T08:59:12.233Z,304.64
2019-03-23T09:00:13.008Z,303.93
2019-03-23T09:01:13.882Z,304.59
2019-03-23T09:02:12.290Z,303.75
2019-03-23T09:03:12.191Z,303.31
2019-03-23T09:04:12.212Z,304.49
2019-03-23T09:05:13.297Z,302.38
2019-03-23T09:06:13.296Z,303.92
2019-03-23T09:07:12.189Z,303.47
2019-03-23T09:08:12.872Z,304.47
2019-03-23T09:09:12.172Z,303.18
2019-03-23T09:10:12.138Z,303.05
2019-03-23T09:11:20.391Z,303.84
2019-03-23T09:12:13.798Z,303.95
2019-03-23T09:13:12.118Z,302.82
2019-03-23T09:14:12.075Z,303.99
2019-03-23T09:15:12.081Z,303.89
2019-03-23T09:16:12.062Z,304.12
2019-03-23T09:17:12.073Z,303.19
2019-03-23T09:18:12.031Z,303.72
2019-03-23T09:19:12.062Z,302.99
2019-03-23T09:20:12.832Z,304.10
2019-03-23T09:21:12.986Z,303.11
2019-03-23T09:22:11.994Z,302.97
2019-03-23T09:23:11.977Z,302.61
2019-03-23T09:24:12.002Z,303.27
2019-03-23T09:25:11.967Z,303.36
2019-03-23T09:26:13.662Z,303.97
2019-03-23T09:27:12.734Z,303.59
2019-03-23T09:28:11.940Z,303.52
2019-03-23T09:29:11.971Z,303.56
2019-03-23T09:30:11.898Z,303.94
2019-03-23T09:31:11.934Z,304.17
2019-03-23T09:32:11.901Z,303.69
2019-03-23T09:33:11.914Z,302.46
2019-03-23T09:34:11.912Z,303.24
2019-03-23T09:35:11.884Z,303.67
2019-03-23T09:36:11.859Z,303.75
2019-03-23T09:37:11.851Z,302.19
2019-03-23T09:38:11.813Z,302.63
2019-03-23T09:39:11.837Z,303.55
2019-03-23T09:40:11.801Z,303.03
2019-03-23T09:41:11.782Z,303.73
2019-03-23T09:42:11.795Z,303.22
2019-03-23T09:43:11.762Z,303.28
2019-03-23T09:44:11.798Z,304.00
2019-03-23T09:45:14.080Z,303.04
2019-03-23T09:46:11.779Z,302.52
2019-03-23T09:47:11.760Z,303.31
2019-03-23T09:48:11.720Z,303.29
2019-03-23T09:49:11.705Z,304.10
2019-03-23T09:50:11.700Z,303.96
2019-03-23T09:51:11.707Z,303.12
2019-03-23T09:52:11.695Z,302.77
2019-03-23T09:53:11.662Z,302.55
2019-03-23T09:54:11.679Z,302.36
2019-03-23T09:55:11.640Z,302.48
2019-03-23T09:56:11.651Z,302.85
2019-03-23T09:57:11.630Z,303.25
2019-03-23T09:58:11.630Z,301.93
2019-03-23T09:59:11.625Z,303.40
2019-03-23T10:00:11.572Z,303.49
2019-03-23T10:01:11.603Z,303.85
2019-03-23T10:02:11.584Z,303.11
2019-03-23T10:03:11.551Z,302.32
2019-03-23T10:04:11.543Z,302.42
2019-03-23T10:05:11.554Z,302.35
2019-03-23T10:06:11.544Z,303.42
2019-03-23T10:07:11.510Z,303.67
2019-03-23T10:08:11.515Z,302.65
2019-03-23T10:09:11.484Z,302.61
2019-03-23T10:10:21.260Z,301.59
2019-03-23T10:11:12.464Z,301.11
2019-03-23T10:12:11.455Z,302.42
2019-03-23T10:13:11.444Z,303.14
2019-03-23T10:14:11.426Z,302.41
2019-03-23T10:15:11.426Z,302.89
2019-03-23T10:16:11.433Z,303.19
2019-03-23T10:17:11.410Z,303.44
2019-03-23T10:18:11.416Z,302.70
2019-03-23T10:19:11.392Z,303.05
2019-03-23T10:20:11.396Z,303.65
2019-03-23T10:21:11.347Z,303.73
2019-03-23T10:22:11.352Z,303.29
2019-03-23T10:23:11.332Z,301.96
2019-03-23T10:24:11.352Z,303.85
2019-03-23T10:25:11.333Z,302.55
2019-03-23T10:26:11.346Z,302.62
2019-03-23T10:27:11.329Z,302.43
2019-03-23T10:28:11.345Z,303.62
2019-03-23T10:29:11.292Z,302.45
2019-03-23T10:30:11.314Z,303.93
2019-03-23T10:31:11.254Z,302.59
2019-03-23T10:32:11.239Z,303.51
2019-03-23T10:33:11.247Z,303.79
2019-03-23T10:34:11.227Z,304.23
2019-03-23T10:35:11.220Z,302.38
2019-03-23T10:36:12.276Z,303.18
2019-03-23T10:37:11.188Z,302.89
2019-03-23T10:38:11.190Z,301.94
2019-03-23T10:39:11.826Z,302.65
2019-03-23T10:40:11.829Z,301.85
2019-03-23T10:41:11.200Z,303.45
2019-03-23T10:42:11.205Z,303.29
2019-03-23T10:43:11.134Z,303.46
2019-03-23T10:44:11.185Z,302.76
2019-03-23T10:45:11.116Z,303.85
2019-03-23T10:46:11.116Z,303.79
2019-03-23T10:47:11.115Z,303.24
2019-03-23T10:48:12.214Z,302.90
2019-03-23T10:49:11.101Z,303.33
2019-03-23T10:50:11.109Z,303.76
2019-03-23T10:51:11.039Z,302.83
2019-03-23T10:52:11.024Z,302.44
2019-03-23T10:53:11.010Z,304.00
2019-03-23T10:54:11.832Z,303.12
2019-03-23T10:55:11.031Z,301.98
2019-03-23T10:56:11.005Z,302.28
2019-03-23T10:57:10.981Z,302.60
2019-03-23T10:58:10.961Z,303.25
2019-03-23T10:59:10.947Z,303.88
2019-03-23T11:00:10.930Z,302.29
2019-03-23T11:01:10.996Z,302.38
2019-03-23T11:02:10.934Z,303.02
2019-03-23T11:03:10.916Z,301.99
2019-03-23T11:04:10.959Z,303.26
2019-03-23T11:05:10.877Z,302.12
2019-03-23T11:06:10.913Z,302.21
2019-03-23T11:07:10.911Z,303.06
2019-03-23T11:08:10.885Z,302.79
2019-03-23T11:09:10.884Z,302.19
2019-03-23T11:10:10.832Z,302.64
2019-03-23T11:11:10.929Z,302.19
2019-03-23T11:12:10.829Z,302.63
2019-03-23T11:13:10.839Z,303.00
2019-03-23T11:14:10.866Z,302.89
2019-03-23T11:15:10.794Z,300.20
2019-03-23T11:16:10.767Z,300.63
2019-03-23T11:17:10.823Z,302.55
2019-03-23T11:18:10.752Z,302.37
2019-03-23T11:19:13.584Z,301.21
2019-03-23T11:20:10.755Z,302.21
2019-03-23T11:21:10.721Z,301.34
2019-03-23T11:22:10.797Z,301.47
2019-03-23T11:23:10.689Z,302.08
2019-03-23T11:24:10.685Z,302.26
2019-03-23T11:25:10.716Z,301.39
2019-03-23T11:26:10.669Z,301.93
2019-03-23T11:27:10.671Z,301.97
2019-03-23T11:28:10.641Z,301.97
2019-03-23T11:29:10.647Z,301.97
2019-03-23T11:30:10.624Z,303.16
2019-03-23T11:31:10.609Z,301.67
2019-03-23T11:32:10.674Z,300.69
2019-03-23T11:33:10.646Z,302.72
2019-03-23T11:34:17.579Z,302.82
2019-03-23T11:35:11.647Z,302.84
2019-03-23T11:36:10.552Z,301.70
2019-03-23T11:37:10.662Z,301.60
2019-03-23T11:38:10.558Z,302.57
2019-03-23T11:39:10.550Z,301.83
2019-03-23T11:40:10.515Z,301.30
2019-03-23T11:41:10.493Z,300.79
2019-03-23T11:42:10.485Z,302.20
2019-03-23T11:43:10.507Z,302.63
2019-03-23T11:44:10.510Z,301.62
2019-03-23T11:45:10.461Z,302.91
2019-03-23T11:46:10.452Z,302.23
2019-03-23T11:47:10.427Z,301.67
2019-03-23T11:48:10.462Z,302.08
2019-03-23T11:49:10.462Z,302.24
2019-03-23T11:50:10.388Z,301.35
2019-03-23T11:51:10.501Z,301.95
2019-03-23T11:52:10.365Z,301.58
2019-03-23T11:53:10.378Z,303.31
2019-03-23T11:54:10.369Z,302.92
2019-03-23T11:55:10.352Z,303.33
2019-03-23T11:56:10.343Z,302.49
2019-03-23T11:57:10.328Z,302.55
2019-03-23T11:58:10.350Z,302.49
2019-03-23T11:59:10.347Z,302.02
2019-03-23T12:00:10.322Z,302.46
2019-03-23T12:01:10.278Z,302.96
2019-03-23T12:02:10.271Z,302.04
2019-03-23T12:03:10.255Z,302.55
2019-03-23T12:04:10.261Z,303.63
2019-03-23T12:05:10.294Z,303.04
2019-03-23T12:06:10.227Z,301.90
2019-03-23T12:07:10.223Z,303.21
2019-03-23T12:08:10.205Z,303.17
2019-03-23T12:09:10.219Z,303.54
2019-03-23T12:10:10.234Z,303.96
2019-03-23T12:11:10.201Z,304.09
2019-03-23T12:12:10.148Z,302.98
2019-03-23T12:13:10.159Z,304.11
2019-03-23T12:14:10.177Z,303.88
2019-03-23T12:15:10.122Z,302.93
2019-03-23T12:16:10.185Z,303.23
2019-03-23T12:17:10.105Z,303.80
2019-03-23T12:18:10.125Z,304.45
2019-03-23T12:19:10.096Z,304.22
2019-03-23T12:20:10.142Z,304.61
2019-03-23T12:21:10.171Z,304.05
2019-03-23T12:22:10.118Z,303.88
2019-03-23T12:23:10.136Z,303.79
2019-03-23T12:24:10.058Z,304.02
2019-03-23T12:25:10.053Z,304.68
2019-03-23T12:26:10.006Z,304.40
2019-03-23T12:27:10.050Z,304.19
2019-03-23T12:28:09.993Z,303.65